Terminal Aerodrome Forecast
Issued by NWS

Home | Current Version | Previous Version | Graphics & Text | Print | Product List | Glossary On
Versions: 1 2 3 4 5 6 7 8 9 10 11 12 13
000
FTUS45 KGGW 230520
TAFSDY
TAF
KSDY 230520Z 2306/2406 32011KT P6SM SCT110
     FM231200 30009KT P6SM SCT180
     FM231600 28013KT P6SM FEW170=

USA.gov is the U.S. government's official web portal to all federal, state and local government web resources and services.